F/V Anna Mamm Mari — FOHD — position and weather

sailwx.info

Track history (hours):
 
Tides and Currents Weather Stations Pressure Air Temp Water Temp Dewpoint Dewpoint Depression Visibility Wind Speed Wind Dir Waves Ship Positions

F/V Anna Mamm Mari

Last reported at 2015-Jul-27 18:33 UTC. Time now 2015-Jul-28 03:33 UTC.
Position N 46°04' W 001°30'.

Length 17 m.

Type: Fishing. MMSI: 228393000.

Date/timePositionNaut miles runAvg speedWind from/ knotsBaromVisibWave heightAir tempDewpointWater temp
2015-Jul-27 18:33N 46°04' W 001°30'0 0.0
2015-Jul-27 17:10N 46°04' W 001°30'3 0.3
2015-Jul-27 08:09N 46°06' W 001°33'5 3.0
2015-Jul-27 06:32N 46°02' W 001°28'1 1.4
2015-Jul-27 05:33N 46°04' W 001°29'1 1.1
2015-Jul-27 04:33N 46°04' W 001°30'0 0.0
2015-Jul-27 03:32N 46°04' W 001°30'0 0.1
2015-Jul-27 02:30N 46°04' W 001°30'0 0.2
2015-Jul-27 01:33N 46°04' W 001°30'1 0.2
2015-Jul-26 17:33N 46°05' W 001°31'2 0.2
2015-Jul-26 08:32N 46°04' W 001°29'1 0.7
2015-Jul-26 07:31N 46°03' W 001°28'1 1.2
2015-Jul-26 06:32N 46°04' W 001°29'1 1.3
2015-Jul-26 05:33N 46°03' W 001°29'1 1.4
2015-Jul-26 04:33N 46°04' W 001°30'1 0.8
2015-Jul-26 03:33N 46°03' W 001°30'2 2.2
2015-Jul-26 02:33N 46°05' W 001°32'17 8.7
2015-Jul-26 00:33N 46°21' W 001°42'9 8.8
2015-Jul-25 23:33N 46°29' W 001°47'1 1.0
2015-Jul-25 22:34N 46°30' W 001°48'0 0.0
2015-Jul-25 21:33N 46°30' W 001°48'0 0.2
2015-Jul-25 20:33N 46°30' W 001°47'2 1.6
2015-Jul-25 19:33N 46°28' W 001°47'9 8.6
2015-Jul-25 18:33N 46°20' W 001°45'12 8.6
2015-Jul-25 17:13N 46°09' W 001°42'10 1.3
2015-Jul-25 09:32N 46°04' W 001°29'1 1.1
2015-Jul-25 08:29N 46°03' W 001°28'1 1.1
2015-Jul-25 07:28N 46°03' W 001°30'1 0.9
2015-Jul-25 06:32N 46°04' W 001°30'1 1.0
2015-Jul-25 05:19N 46°05' W 001°30'1 0.8
2015-Jul-25 04:13N 46°05' W 001°31'2 1.1
2015-Jul-25 02:13N 46°03' W 001°29'0 0.0
2015-Jul-25 01:31N 46°03' W 001°29'0 0.0
2015-Jul-24 23:30N 46°03' W 001°29'1 0.2
2015-Jul-24 18:32N 46°03' W 001°28'2 0.2
2015-Jul-24 08:11N 46°04' W 001°30'1 1.4
2015-Jul-24 07:15N 46°04' W 001°29'1 1.2
2015-Jul-24 06:33N 46°04' W 001°30'1 1.1
2015-Jul-24 05:33N 46°05' W 001°30'1 0.8
2015-Jul-24 04:34N 46°05' W 001°31'1 1.1
2015-Jul-24 03:33N 46°04' W 001°30'0 0.2
2015-Jul-24 02:33N 46°04' W 001°30'0 0.1
2015-Jul-24 01:33N 46°04' W 001°30'0 0.0
2015-Jul-24 00:33N 46°04' W 001°30'0 0.0
2015-Jul-23 23:33N 46°04' W 001°30'0 0.0
2015-Jul-23 22:34N 46°04' W 001°30'0 0.0
2015-Jul-23 21:33N 46°04' W 001°30'0 0.0
2015-Jul-23 20:33N 46°04' W 001°30'0 0.0
2015-Jul-23 19:33N 46°04' W 001°30'0 0.0
2015-Jul-23 18:33N 46°04' W 001°30'0 0.1
2015-Jul-23 17:14N 46°04' W 001°30'1 2.0
2015-Jul-23 16:33N 46°05' W 001°30'6 2.9
2015-Jul-23 14:25N 46°08' W 001°38'4 0.7
2015-Jul-23 09:31N 46°06' W 001°42'4 1.8
2015-Jul-23 07:26N 46°04' W 001°37'1 0.4
2015-Jul-23 05:11N 46°05' W 001°38'2 0.1
2015-Jul-22 15:17N 46°03' W 001°36'4 2.1
2015-Jul-22 13:19N 46°07' W 001°33'0 0.4
2015-Jul-22 12:13N 46°06' W 001°32'6 3.6
2015-Jul-22 10:27N 46°09' W 001°41'1 0.9
2015-Jul-22 09:32N 46°09' W 001°40'2 1.2
2015-Jul-22 08:14N 46°08' W 001°38'1 0.9
2015-Jul-22 07:31N 46°09' W 001°38'1 0.6
2015-Jul-22 05:26N 46°07' W 001°37'1 1.1
2015-Jul-22 04:19N 46°08' W 001°38'1 0.8
2015-Jul-22 03:31N 46°09' W 001°38'1 0.9
2015-Jul-22 02:21N 46°09' W 001°40'7 6.7
2015-Jul-22 01:21N 46°16' W 001°41'7 8.9
2015-Jul-22 00:33N 46°22' W 001°44'8 7.9
2015-Jul-21 23:33N 46°30' W 001°47'0 0.1
2015-Jul-21 22:33N 46°30' W 001°47'0 0.0
2015-Jul-21 21:33N 46°30' W 001°47'0 0.0
2015-Jul-21 20:33N 46°30' W 001°47'0 0.0
2015-Jul-21 19:33N 46°30' W 001°47'0 0.0
2015-Jul-21 18:33N 46°30' W 001°47'0 0.0
2015-Jul-21 17:33N 46°30' W 001°47'0 0.0
2015-Jul-21 16:33N 46°30' W 001°47'0 0.1
2015-Jul-21 15:33N 46°30' W 001°47'8 8.1
2015-Jul-21 14:33N 46°22' W 001°43'16 6.4
2015-Jul-21 12:04N 46°07' W 001°36'3 6.5
2015-Jul-21 11:33N 46°09' W 001°40'1 1.0
2015-Jul-21 10:20N 46°09' W 001°38'1 0.2
2015-Jul-21 05:19N 46°08' W 001°38'2 0.3
2015-Jul-21 00:33N 46°07' W 001°39'0 0.1
2015-Jul-20 23:14N 46°07' W 001°39'0 0.1
2015-Jul-20 22:33N 46°07' W 001°39'0 0.0
2015-Jul-20 21:22N 46°07' W 001°39'2 0.1
2015-Jul-19 12:18N 46°09' W 001°40'2 0.1
2015-Jul-19 00:18N 46°09' W 001°38'0 0.2
2015-Jul-18 23:33N 46°09' W 001°38'0 0.2
2015-Jul-18 22:33N 46°09' W 001°38'0 0.1
2015-Jul-18 21:33N 46°09' W 001°38'0 0.1
2015-Jul-18 20:33N 46°09' W 001°38'0 0.1
2015-Jul-18 19:33N 46°09' W 001°38'0 0.1
2015-Jul-18 18:33N 46°09' W 001°38'0 0.0
2015-Jul-18 17:33N 46°09' W 001°38'2 1.7
2015-Jul-18 16:33N 46°08' W 001°40'0 0.1
2015-Jul-18 15:32N 46°08' W 001°40'1 1.5
2015-Jul-18 14:33N 46°09' W 001°40'2 1.7
2015-Jul-18 13:17N 46°11' W 001°40'1 0.3
2015-Jul-18 11:33N 46°11' W 001°40'2 1.8
2015-Jul-18 10:33N 46°09' W 001°41'0 0.4
2015-Jul-18 09:33N 46°09' W 001°40'0 0.3
2015-Jul-18 08:31N 46°09' W 001°41'0 0.4
2015-Jul-18 07:28N 46°08' W 001°40'0 0.3
2015-Jul-18 06:33N 46°09' W 001°41'4 3.6
2015-Jul-18 05:26N 46°13' W 001°40'2 1.7
2015-Jul-18 04:31N 46°14' W 001°41'0 0.3
2015-Jul-18 03:28N 46°14' W 001°41'6 6.0
2015-Jul-18 02:33N 46°19' W 001°43'8 8.4
2015-Jul-18 01:33N 46°27' W 001°47'3 2.6
2015-Jul-18 00:33N 46°30' W 001°47'0 0.0
2015-Jul-17 23:33N 46°30' W 001°47'0 0.0
2015-Jul-17 22:33N 46°30' W 001°47'0 0.0
2015-Jul-17 21:33N 46°30' W 001°47'0 0.0
2015-Jul-17 20:33N 46°30' W 001°47'0 0.0
2015-Jul-17 19:34N 46°30' W 001°47'0 0.0
2015-Jul-17 18:33N 46°30' W 001°47'  
Track history (hours):
 
Tides and Currents Weather Stations Pressure Air Temp Water Temp Dewpoint Dewpoint Depression Visibility Wind Speed Wind Dir Waves Ship Positions

F/V Anna Mamm Mari

Last reported at 2015-Jul-27 18:33 UTC. Time now 2015-Jul-28 03:33 UTC.
Position N 46°04' W 001°30'.

Length 17 m.

Type: Fishing. MMSI: 228393000.

Date/timePositionNaut miles runAvg speedWind from/ knotsBaromVisibWave heightAir tempDewpointWater temp
2015-Jul-27 18:33N 46°04' W 001°30'0 0.0
2015-Jul-27 17:10N 46°04' W 001°30'3 0.3
2015-Jul-27 08:09N 46°06' W 001°33'5 3.0
2015-Jul-27 06:32N 46°02' W 001°28'1 1.4
2015-Jul-27 05:33N 46°04' W 001°29'1 1.1
2015-Jul-27 04:33N 46°04' W 001°30'0 0.0
2015-Jul-27 03:32N 46°04' W 001°30'0 0.1
2015-Jul-27 02:30N 46°04' W 001°30'0 0.2
2015-Jul-27 01:33N 46°04' W 001°30'1 0.2
2015-Jul-26 17:33N 46°05' W 001°31'2 0.2
2015-Jul-26 08:32N 46°04' W 001°29'1 0.7
2015-Jul-26 07:31N 46°03' W 001°28'1 1.2
2015-Jul-26 06:32N 46°04' W 001°29'1 1.3
2015-Jul-26 05:33N 46°03' W 001°29'1 1.4
2015-Jul-26 04:33N 46°04' W 001°30'1 0.8
2015-Jul-26 03:33N 46°03' W 001°30'2 2.2
2015-Jul-26 02:33N 46°05' W 001°32'17 8.7
2015-Jul-26 00:33N 46°21' W 001°42'9 8.8
2015-Jul-25 23:33N 46°29' W 001°47'1 1.0
2015-Jul-25 22:34N 46°30' W 001°48'0 0.0
2015-Jul-25 21:33N 46°30' W 001°48'0 0.2
2015-Jul-25 20:33N 46°30' W 001°47'2 1.6
2015-Jul-25 19:33N 46°28' W 001°47'9 8.6
2015-Jul-25 18:33N 46°20' W 001°45'12 8.6
2015-Jul-25 17:13N 46°09' W 001°42'10 1.3
2015-Jul-25 09:32N 46°04' W 001°29'1 1.1
2015-Jul-25 08:29N 46°03' W 001°28'1 1.1
2015-Jul-25 07:28N 46°03' W 001°30'1 0.9
2015-Jul-25 06:32N 46°04' W 001°30'1 1.0
2015-Jul-25 05:19N 46°05' W 001°30'1 0.8
2015-Jul-25 04:13N 46°05' W 001°31'2 1.1
2015-Jul-25 02:13N 46°03' W 001°29'0 0.0
2015-Jul-25 01:31N 46°03' W 001°29'0 0.0
2015-Jul-24 23:30N 46°03' W 001°29'1 0.2
2015-Jul-24 18:32N 46°03' W 001°28'2 0.2
2015-Jul-24 08:11N 46°04' W 001°30'1 1.4
2015-Jul-24 07:15N 46°04' W 001°29'1 1.2
2015-Jul-24 06:33N 46°04' W 001°30'1 1.1
2015-Jul-24 05:33N 46°05' W 001°30'1 0.8
2015-Jul-24 04:34N 46°05' W 001°31'1 1.1
2015-Jul-24 03:33N 46°04' W 001°30'0 0.2
2015-Jul-24 02:33N 46°04' W 001°30'0 0.1
2015-Jul-24 01:33N 46°04' W 001°30'0 0.0
2015-Jul-24 00:33N 46°04' W 001°30'0 0.0
2015-Jul-23 23:33N 46°04' W 001°30'0 0.0
2015-Jul-23 22:34N 46°04' W 001°30'0 0.0
2015-Jul-23 21:33N 46°04' W 001°30'0 0.0
2015-Jul-23 20:33N 46°04' W 001°30'0 0.0
2015-Jul-23 19:33N 46°04' W 001°30'0 0.0
2015-Jul-23 18:33N 46°04' W 001°30'0 0.1
2015-Jul-23 17:14N 46°04' W 001°30'1 2.0
2015-Jul-23 16:33N 46°05' W 001°30'6 2.9
2015-Jul-23 14:25N 46°08' W 001°38'4 0.7
2015-Jul-23 09:31N 46°06' W 001°42'4 1.8
2015-Jul-23 07:26N 46°04' W 001°37'1 0.4
2015-Jul-23 05:11N 46°05' W 001°38'2 0.1
2015-Jul-22 15:17N 46°03' W 001°36'4 2.1
2015-Jul-22 13:19N 46°07' W 001°33'0 0.4
2015-Jul-22 12:13N 46°06' W 001°32'6 3.6
2015-Jul-22 10:27N 46°09' W 001°41'1 0.9
2015-Jul-22 09:32N 46°09' W 001°40'2 1.2
2015-Jul-22 08:14N 46°08' W 001°38'1 0.9
2015-Jul-22 07:31N 46°09' W 001°38'1 0.6
2015-Jul-22 05:26N 46°07' W 001°37'1 1.1
2015-Jul-22 04:19N 46°08' W 001°38'1 0.8
2015-Jul-22 03:31N 46°09' W 001°38'1 0.9
2015-Jul-22 02:21N 46°09' W 001°40'7 6.7
2015-Jul-22 01:21N 46°16' W 001°41'7 8.9
2015-Jul-22 00:33N 46°22' W 001°44'8 7.9
2015-Jul-21 23:33N 46°30' W 001°47'0 0.1
2015-Jul-21 22:33N 46°30' W 001°47'0 0.0
2015-Jul-21 21:33N 46°30' W 001°47'0 0.0
2015-Jul-21 20:33N 46°30' W 001°47'0 0.0
2015-Jul-21 19:33N 46°30' W 001°47'0 0.0
2015-Jul-21 18:33N 46°30' W 001°47'0 0.0
2015-Jul-21 17:33N 46°30' W 001°47'0 0.0
2015-Jul-21 16:33N 46°30' W 001°47'0 0.1
2015-Jul-21 15:33N 46°30' W 001°47'8 8.1
2015-Jul-21 14:33N 46°22' W 001°43'16 6.4
2015-Jul-21 12:04N 46°07' W 001°36'3 6.5
2015-Jul-21 11:33N 46°09' W 001°40'1 1.0
2015-Jul-21 10:20N 46°09' W 001°38'1 0.2
2015-Jul-21 05:19N 46°08' W 001°38'2 0.3
2015-Jul-21 00:33N 46°07' W 001°39'0 0.1
2015-Jul-20 23:14N 46°07' W 001°39'0 0.1
2015-Jul-20 22:33N 46°07' W 001°39'0 0.0
2015-Jul-20 21:22N 46°07' W 001°39'2 0.1
2015-Jul-19 12:18N 46°09' W 001°40'2 0.1
2015-Jul-19 00:18N 46°09' W 001°38'0 0.2
2015-Jul-18 23:33N 46°09' W 001°38'0 0.2
2015-Jul-18 22:33N 46°09' W 001°38'0 0.1
2015-Jul-18 21:33N 46°09' W 001°38'0 0.1
2015-Jul-18 20:33N 46°09' W 001°38'0 0.1
2015-Jul-18 19:33N 46°09' W 001°38'0 0.1
2015-Jul-18 18:33N 46°09' W 001°38'0 0.0
2015-Jul-18 17:33N 46°09' W 001°38'2 1.7
2015-Jul-18 16:33N 46°08' W 001°40'0 0.1
2015-Jul-18 15:32N 46°08' W 001°40'1 1.5
2015-Jul-18 14:33N 46°09' W 001°40'2 1.7
2015-Jul-18 13:17N 46°11' W 001°40'1 0.3
2015-Jul-18 11:33N 46°11' W 001°40'2 1.8
2015-Jul-18 10:33N 46°09' W 001°41'0 0.4
2015-Jul-18 09:33N 46°09' W 001°40'0 0.3
2015-Jul-18 08:31N 46°09' W 001°41'0 0.4
2015-Jul-18 07:28N 46°08' W 001°40'0 0.3
2015-Jul-18 06:33N 46°09' W 001°41'4 3.6
2015-Jul-18 05:26N 46°13' W 001°40'2 1.7
2015-Jul-18 04:31N 46°14' W 001°41'0 0.3
2015-Jul-18 03:28N 46°14' W 001°41'6 6.0
2015-Jul-18 02:33N 46°19' W 001°43'8 8.4
2015-Jul-18 01:33N 46°27' W 001°47'3 2.6
2015-Jul-18 00:33N 46°30' W 001°47'0 0.0
2015-Jul-17 23:33N 46°30' W 001°47'0 0.0
2015-Jul-17 22:33N 46°30' W 001°47'0 0.0
2015-Jul-17 21:33N 46°30' W 001°47'0 0.0
2015-Jul-17 20:33N 46°30' W 001°47'0 0.0
2015-Jul-17 19:34N 46°30' W 001°47'0 0.0
2015-Jul-17 18:33N 46°30' W 001°47'  

Dump ship's entire track history